Time;durP1;ratioP1;P1;durP2;ratioP2;P2;SDS_P1;SDS_P2;PMS_P1;PMS_P2;Temp;Humidity;BMP_temperature;BMP_pressure;BME280_temperature;BME280_humidity;BME280_pressure;Samples;Min_cycle;Max_cycle;Signal;HPM_P1;HPM_P2
2024/01/24 00:02:14;;;;;;;2.28;1.00;;;;;;;;;;5097625;28;20283;-83
2024/01/24 00:04:42;;;;;;;1.10;1.00;;;;;;;;;;5100697;28;20279;-83
2024/01/24 00:07:10;;;;;;;0.93;0.85;;;;;;;;;;5116582;28;20206;-82
2024/01/24 00:09:37;;;;;;;0.73;0.73;;;;;;;;;;5115949;28;20656;-83
2024/01/24 00:12:06;;;;;;;0.98;0.90;;;;;;;;;;5096516;28;20204;-82
2024/01/24 00:14:33;;;;;;;0.80;0.80;;;;;;;;;;5094383;28;20231;-83
2024/01/24 00:17:01;;;;;;;1.70;0.95;;;;;;;;;;5110345;28;20256;-82
2024/01/24 00:19:28;;;;;;;1.20;0.90;;;;;;;;;;5108724;28;20227;-81
2024/01/24 00:21:57;;;;;;;1.25;1.15;;;;;;;;;;5096504;28;20200;-83
2024/01/24 00:24:25;;;;;;;1.90;1.45;;;;;;;;;;5100193;28;20286;-82
2024/01/24 00:26:52;;;;;;;1.05;1.00;;;;;;;;;;5096049;28;20204;-83
2024/01/24 00:29:20;;;;;;;0.70;0.70;;;;;;;;;;5098055;28;20290;-82
2024/01/24 00:31:48;;;;;;;0.80;0.80;;;;;;;;;;5103390;28;20196;-82
2024/01/24 00:34:16;;;;;;;1.25;0.88;;;;;;;;;;5096071;28;20232;-83
2024/01/24 00:36:43;;;;;;;0.70;0.70;;;;;;;;;;5116324;28;20262;-82
2024/01/24 00:39:13;;;;;;;0.75;0.75;;;;;;;;;;5116701;28;20216;-82
2024/01/24 00:41:42;;;;;;;0.93;0.90;;;;;;;;;;5116197;28;20192;-82
2024/01/24 00:44:10;;;;;;;0.82;0.82;;;;;;;;;;5107997;28;20204;-82
2024/01/24 00:46:37;;;;;;;0.90;0.90;;;;;;;;;;5098070;28;20640;-84
2024/01/24 00:49:05;;;;;;;1.23;0.85;;;;;;;;;;5097358;28;20187;-83
2024/01/24 00:51:32;;;;;;;3.08;1.42;;;;;;;;;;5096184;28;20726;-83
2024/01/24 00:53:59;;;;;;;0.90;0.90;;;;;;;;;;5102919;28;20191;-83
2024/01/24 00:56:28;;;;;;;0.90;0.90;;;;;;;;;;5115443;28;20580;-83
2024/01/24 00:58:56;;;;;;;1.20;1.10;;;;;;;;;;5097511;28;20227;-84
2024/01/24 01:01:23;;;;;;;0.80;0.80;;;;;;;;;;5097239;28;20231;-84
2024/01/24 01:03:51;;;;;;;0.80;0.80;;;;;;;;;;5099868;28;20259;-83
2024/01/24 01:06:18;;;;;;;0.95;0.95;;;;;;;;;;5097785;28;20213;-82
2024/01/24 01:08:46;;;;;;;1.17;1.08;;;;;;;;;;5098732;28;20192;-84
2024/01/24 01:11:13;;;;;;;1.30;1.20;;;;;;;;;;5111479;28;20283;-84
2024/01/24 01:13:42;;;;;;;1.25;0.98;;;;;;;;;;5101229;28;20296;-83
2024/01/24 01:16:09;;;;;;;1.02;0.90;;;;;;;;;;5100479;28;20248;-83
2024/01/24 01:18:37;;;;;;;1.58;1.48;;;;;;;;;;5099445;28;20314;-83
2024/01/24 01:21:05;;;;;;;1.42;1.02;;;;;;;;;;5101288;28;20204;-83
2024/01/24 01:23:32;;;;;;;0.65;0.65;;;;;;;;;;5103159;28;20284;-83
2024/01/24 01:26:00;;;;;;;1.30;0.82;;;;;;;;;;5100394;28;20369;-84
2024/01/24 01:28:27;;;;;;;1.02;1.02;;;;;;;;;;5099577;28;20350;-83
2024/01/24 01:30:56;;;;;;;0.70;0.70;;;;;;;;;;5099660;28;20612;-82
2024/01/24 01:33:24;;;;;;;0.88;0.80;;;;;;;;;;5119714;28;20333;-83
2024/01/24 01:35:51;;;;;;;0.70;0.70;;;;;;;;;;5105299;28;20308;-83
2024/01/24 01:38:19;;;;;;;0.70;0.70;;;;;;;;;;5117937;28;20198;-83
2024/01/24 01:40:46;;;;;;;0.63;0.63;;;;;;;;;;5119103;28;20246;-83
2024/01/24 01:43:14;;;;;;;0.70;0.70;;;;;;;;;;5120742;28;20255;-84
2024/01/24 01:45:42;;;;;;;0.90;0.90;;;;;;;;;;5111646;28;20793;-84
2024/01/24 01:48:12;;;;;;;0.88;0.80;;;;;;;;;;5102465;28;20287;-84
2024/01/24 01:50:40;;;;;;;0.60;0.60;;;;;;;;;;5103349;28;20197;-84
2024/01/24 01:53:08;;;;;;;2.50;0.47;;;;;;;;;;5101173;28;20204;-83
2024/01/24 01:55:37;;;;;;;0.75;0.63;;;;;;;;;;5103008;28;20713;-84
2024/01/24 01:58:05;;;;;;;1.15;0.90;;;;;;;;;;5122931;28;20207;-82
2024/01/24 02:00:34;;;;;;;0.77;0.77;;;;;;;;;;5122482;28;20279;-81
2024/01/24 02:03:02;;;;;;;0.70;0.70;;;;;;;;;;5098145;28;20204;-83
2024/01/24 02:05:31;;;;;;;0.93;0.80;;;;;;;;;;5102850;28;20220;-82
2024/01/24 02:07:58;;;;;;;0.47;0.47;;;;;;;;;;5102035;28;20268;-82
2024/01/24 02:10:26;;;;;;;1.30;0.77;;;;;;;;;;5102868;28;20386;-82
2024/01/24 02:12:53;;;;;;;0.60;0.60;;;;;;;;;;5122217;28;20243;-84
2024/01/24 02:15:21;;;;;;;1.50;0.88;;;;;;;;;;5102641;28;20303;-84
2024/01/24 02:17:49;;;;;;;1.50;1.40;;;;;;;;;;5099083;28;20714;-84
2024/01/24 02:20:18;;;;;;;0.95;0.60;;;;;;;;;;5118894;28;20212;-84
2024/01/24 02:22:47;;;;;;;0.80;0.80;;;;;;;;;;5103482;28;20694;-83
2024/01/24 02:25:15;;;;;;;0.60;0.60;;;;;;;;;;5116162;28;20771;-82
2024/01/24 02:27:43;;;;;;;0.70;0.70;;;;;;;;;;5109378;28;20200;-83
2024/01/24 02:30:11;;;;;;;0.60;0.60;;;;;;;;;;5114996;28;20198;-84
2024/01/24 02:32:40;;;;;;;0.55;0.55;;;;;;;;;;5099480;28;20199;-83
2024/01/24 02:35:08;;;;;;;0.50;0.50;;;;;;;;;;5117516;28;20216;-84
2024/01/24 02:37:36;;;;;;;0.50;0.50;;;;;;;;;;5114055;28;20210;-85
2024/01/24 02:40:04;;;;;;;1.05;0.90;;;;;;;;;;5097699;28;20220;-83
2024/01/24 02:42:33;;;;;;;0.60;0.60;;;;;;;;;;5106052;28;20905;-83
2024/01/24 02:45:01;;;;;;;0.70;0.70;;;;;;;;;;5112890;28;20229;-84
2024/01/24 02:47:28;;;;;;;1.10;0.73;;;;;;;;;;5097475;28;20628;-86
2024/01/24 02:49:57;;;;;;;0.63;0.60;;;;;;;;;;5097474;28;20203;-87
2024/01/24 02:52:24;;;;;;;0.50;0.50;;;;;;;;;;5104446;28;20196;-84
2024/01/24 02:54:52;;;;;;;0.50;0.50;;;;;;;;;;5095973;28;20267;-84
2024/01/24 02:57:19;;;;;;;0.80;0.80;;;;;;;;;;5098377;28;20563;-86
2024/01/24 02:59:48;;;;;;;0.40;0.40;;;;;;;;;;5095431;28;20223;-86
2024/01/24 03:02:16;;;;;;;0.60;0.60;;;;;;;;;;5097953;28;20235;-86
2024/01/24 03:04:43;;;;;;;0.52;0.52;;;;;;;;;;5117261;28;20208;-85
2024/01/24 03:07:11;;;;;;;0.52;0.52;;;;;;;;;;5118232;28;20205;-85
2024/01/24 03:09:38;;;;;;;0.68;0.65;;;;;;;;;;5100084;28;20200;-85
2024/01/24 03:12:07;;;;;;;0.85;0.85;;;;;;;;;;5102161;28;20203;-84
2024/01/24 03:14:34;;;;;;;0.50;0.50;;;;;;;;;;5095218;28;20272;-83
2024/01/24 03:17:03;;;;;;;0.52;0.52;;;;;;;;;;5093154;28;20192;-86
2024/01/24 03:19:30;;;;;;;0.43;0.43;;;;;;;;;;5102148;28;20718;-84
2024/01/24 03:21:58;;;;;;;0.50;0.50;;;;;;;;;;5103791;28;20283;-86
2024/01/24 03:24:25;;;;;;;0.88;0.60;;;;;;;;;;5098130;28;20636;-85
2024/01/24 03:26:53;;;;;;;0.75;0.68;;;;;;;;;;5097392;28;20200;-86
2024/01/24 03:29:23;;;;;;;0.50;0.50;;;;;;;;;;5096169;28;20287;-86
2024/01/24 03:31:50;;;;;;;0.50;0.50;;;;;;;;;;5097221;28;20185;-86
2024/01/24 03:34:19;;;;;;;0.77;0.77;;;;;;;;;;5101082;28;20640;-86
2024/01/24 03:36:46;;;;;;;0.40;0.40;;;;;;;;;;5099773;28;20224;-84
2024/01/24 03:39:14;;;;;;;0.73;0.70;;;;;;;;;;5096960;28;20201;-86
2024/01/24 03:41:42;;;;;;;1.48;0.75;;;;;;;;;;5096065;28;20571;-85
2024/01/24 03:44:09;;;;;;;0.68;0.68;;;;;;;;;;5098524;28;20215;-84
2024/01/24 03:46:36;;;;;;;0.57;0.57;;;;;;;;;;5092229;28;20247;-85
2024/01/24 03:49:04;;;;;;;0.65;0.65;;;;;;;;;;5098489;28;20210;-86
2024/01/24 03:51:33;;;;;;;1.75;0.73;;;;;;;;;;5095986;28;20283;-85
2024/01/24 03:54:01;;;;;;;0.52;0.52;;;;;;;;;;5096155;28;20204;-86
2024/01/24 03:56:28;;;;;;;0.43;0.40;;;;;;;;;;5096361;28;20228;-86
2024/01/24 03:58:56;;;;;;;0.82;0.82;;;;;;;;;;5091895;28;20230;-85
2024/01/24 04:01:23;;;;;;;0.50;0.50;;;;;;;;;;5095878;28;20226;-82
2024/01/24 04:03:51;;;;;;;0.80;0.80;;;;;;;;;;5093553;28;20200;-86
2024/01/24 04:06:18;;;;;;;0.77;0.77;;;;;;;;;;5095398;28;20323;-85
2024/01/24 04:08:47;;;;;;;3.13;1.70;;;;;;;;;;5100546;28;20203;-84
2024/01/24 04:11:14;;;;;;;0.70;0.70;;;;;;;;;;5096428;28;20283;-86
2024/01/24 04:13:43;;;;;;;0.85;0.85;;;;;;;;;;5090587;28;20659;-83
2024/01/24 04:16:11;;;;;;;0.60;0.60;;;;;;;;;;5089019;28;20216;-85
2024/01/24 04:18:38;;;;;;;0.40;0.40;;;;;;;;;;5093618;28;20200;-85
2024/01/24 04:21:06;;;;;;;0.45;0.45;;;;;;;;;;5095251;28;20216;-86
2024/01/24 04:23:33;;;;;;;0.25;0.25;;;;;;;;;;5091545;28;20287;-84
2024/01/24 04:26:04;;;;;;;0.60;0.47;;;;;;;;;;5087594;28;20323;-84
2024/01/24 04:28:32;;;;;;;0.45;0.45;;;;;;;;;;5091950;28;20215;-84
2024/01/24 04:30:59;;;;;;;0.47;0.47;;;;;;;;;;5092658;28;20805;-84
2024/01/24 04:33:27;;;;;;;0.40;0.40;;;;;;;;;;5091086;28;20547;-85
2024/01/24 04:35:55;;;;;;;0.30;0.30;;;;;;;;;;5090937;28;20228;-84
2024/01/24 04:38:24;;;;;;;0.30;0.30;;;;;;;;;;5093293;28;20200;-85
2024/01/24 04:40:51;;;;;;;0.47;0.47;;;;;;;;;;5090816;28;20626;-86
2024/01/24 04:43:23;;;;;;;0.30;0.30;;;;;;;;;;5090850;28;20192;-87
2024/01/24 04:45:50;;;;;;;0.47;0.40;;;;;;;;;;5096157;28;20311;-81
2024/01/24 04:48:18;;;;;;;0.30;0.30;;;;;;;;;;5098434;28;20670;-81
2024/01/24 04:50:45;;;;;;;0.47;0.47;;;;;;;;;;5094400;28;20196;-82
2024/01/24 04:53:13;;;;;;;0.40;0.40;;;;;;;;;;5091537;28;20200;-82
2024/01/24 04:55:40;;;;;;;0.60;0.60;;;;;;;;;;5096154;28;20263;-81
2024/01/24 04:58:07;;;;;;;0.30;0.30;;;;;;;;;;5096445;28;20204;-81
2024/01/24 05:00:36;;;;;;;0.40;0.40;;;;;;;;;;5094611;28;20636;-83
2024/01/24 05:03:04;;;;;;;0.50;0.50;;;;;;;;;;5094737;28;20389;-82
2024/01/24 05:05:32;;;;;;;0.30;0.30;;;;;;;;;;5098109;28;20311;-80
2024/01/24 05:07:59;;;;;;;0.50;0.50;;;;;;;;;;5092371;28;20192;-83
2024/01/24 05:10:27;;;;;;;0.32;0.32;;;;;;;;;;5092629;28;20698;-81
2024/01/24 05:12:54;;;;;;;0.30;0.30;;;;;;;;;;5105151;28;20275;-81
2024/01/24 05:15:22;;;;;;;0.40;0.40;;;;;;;;;;5096755;28;20225;-80
2024/01/24 05:17:51;;;;;;;0.40;0.40;;;;;;;;;;5089778;28;20706;-82
2024/01/24 05:20:18;;;;;;;0.40;0.40;;;;;;;;;;5099837;28;20196;-81
2024/01/24 05:22:47;;;;;;;0.32;0.30;;;;;;;;;;5102581;28;20226;-81
2024/01/24 05:25:15;;;;;;;0.40;0.40;;;;;;;;;;5100494;28;20305;-81
2024/01/24 05:27:42;;;;;;;0.50;0.50;;;;;;;;;;5100697;28;20291;-80
2024/01/24 05:30:11;;;;;;;0.40;0.40;;;;;;;;;;5102384;28;20559;-81
2024/01/24 05:32:38;;;;;;;0.47;0.30;;;;;;;;;;5097745;28;20287;-79
2024/01/24 05:35:08;;;;;;;0.30;0.30;;;;;;;;;;5099005;28;20770;-81
2024/01/24 05:37:36;;;;;;;0.35;0.35;;;;;;;;;;5100045;28;20212;-82
2024/01/24 05:40:04;;;;;;;0.22;0.22;;;;;;;;;;5089290;28;20263;-81
2024/01/24 05:42:32;;;;;;;1.55;0.40;;;;;;;;;;5097678;28;20221;-80
2024/01/24 05:45:00;;;;;;;1.55;0.32;;;;;;;;;;5096327;28;20250;-82
2024/01/24 05:47:27;;;;;;;0.40;0.40;;;;;;;;;;5100806;28;20283;-83
2024/01/24 05:49:55;;;;;;;0.55;0.55;;;;;;;;;;5099162;28;20292;-80
2024/01/24 05:52:23;;;;;;;0.40;0.40;;;;;;;;;;5095526;28;20202;-82
2024/01/24 05:54:51;;;;;;;1.10;0.35;;;;;;;;;;5094683;28;20226;-82
2024/01/24 05:57:18;;;;;;;0.20;0.20;;;;;;;;;;5101750;28;20192;-81
2024/01/24 05:59:46;;;;;;;0.30;0.30;;;;;;;;;;5090451;28;20295;-82
2024/01/24 06:02:13;;;;;;;0.30;0.30;;;;;;;;;;5097978;28;20212;-81
2024/01/24 06:04:41;;;;;;;0.22;0.22;;;;;;;;;;5095185;28;20291;-80
2024/01/24 06:07:09;;;;;;;0.22;0.22;;;;;;;;;;5100364;28;20211;-83
2024/01/24 06:09:38;;;;;;;0.30;0.30;;;;;;;;;;5102666;28;20268;-81
2024/01/24 06:12:06;;;;;;;0.38;0.38;;;;;;;;;;5091505;28;20200;-80
2024/01/24 06:14:34;;;;;;;0.50;0.43;;;;;;;;;;5088217;28;20265;-81
2024/01/24 06:17:02;;;;;;;0.38;0.38;;;;;;;;;;5100942;28;20288;-82
2024/01/24 06:19:30;;;;;;;1.10;0.40;;;;;;;;;;5091237;28;20239;-82
2024/01/24 06:21:57;;;;;;;0.28;0.28;;;;;;;;;;5097324;28;20315;-82
2024/01/24 06:24:25;;;;;;;0.50;0.50;;;;;;;;;;5094802;28;20291;-80
2024/01/24 06:26:54;;;;;;;0.32;0.32;;;;;;;;;;5101997;28;20281;-81
2024/01/24 06:29:21;;;;;;;0.30;0.30;;;;;;;;;;5100695;28;20201;-81
2024/01/24 06:31:49;;;;;;;0.25;0.25;;;;;;;;;;5096779;28;20287;-83
2024/01/24 06:34:17;;;;;;;0.20;0.20;;;;;;;;;;5087118;28;20209;-83
2024/01/24 06:36:44;;;;;;;0.75;0.70;;;;;;;;;;5101858;28;20612;-81
2024/01/24 06:39:12;;;;;;;1.30;0.70;;;;;;;;;;5101132;28;20268;-81
2024/01/24 06:41:40;;;;;;;0.82;0.40;;;;;;;;;;5095916;28;20291;-82
2024/01/24 06:44:09;;;;;;;1.73;0.70;;;;;;;;;;5098255;28;20210;-80
2024/01/24 06:46:43;;;;;;;1.20;0.90;;;;;;;;;;5098669;28;20308;-82
2024/01/24 06:49:11;;;;;;;1.13;0.70;;;;;;;;;;5097233;28;20290;-82
2024/01/24 06:51:39;;;;;;;0.90;0.70;;;;;;;;;;5090592;28;20211;-83
2024/01/24 06:54:07;;;;;;;0.88;0.80;;;;;;;;;;5101290;28;20267;-82
2024/01/24 06:56:35;;;;;;;1.35;1.20;;;;;;;;;;5110578;28;20315;-81
2024/01/24 06:59:02;;;;;;;2.13;1.10;;;;;;;;;;5094577;28;20219;-81
2024/01/24 07:01:31;;;;;;;1.13;0.90;;;;;;;;;;5103054;28;20595;-83
2024/01/24 07:03:59;;;;;;;1.35;1.05;;;;;;;;;;5097437;28;20227;-80
2024/01/24 07:06:26;;;;;;;1.60;0.73;;;;;;;;;;5091014;28;20312;-81
2024/01/24 07:08:54;;;;;;;2.53;1.33;;;;;;;;;;5103741;28;20219;-82
2024/01/24 07:11:21;;;;;;;6.85;1.23;;;;;;;;;;5099255;28;20304;-84
2024/01/24 07:13:48;;;;;;;5.25;2.38;;;;;;;;;;5100113;28;20291;-82
2024/01/24 07:16:16;;;;;;;8.20;2.22;;;;;;;;;;5100713;28;20311;-82
2024/01/24 07:18:45;;;;;;;2.63;1.50;;;;;;;;;;5090509;28;20205;-82
2024/01/24 07:21:13;;;;;;;1.73;0.82;;;;;;;;;;5100803;28;20208;-83
2024/01/24 07:23:40;;;;;;;3.85;1.60;;;;;;;;;;5100610;28;20226;-80
2024/01/24 07:26:07;;;;;;;4.72;1.50;;;;;;;;;;5092835;28;20312;-84
2024/01/24 07:28:35;;;;;;;3.72;1.70;;;;;;;;;;5090420;28;20292;-81
2024/01/24 07:31:03;;;;;;;2.75;1.30;;;;;;;;;;5099607;28;20298;-83
2024/01/24 07:33:30;;;;;;;2.67;1.55;;;;;;;;;;5102245;28;20201;-81
2024/01/24 07:35:59;;;;;;;3.78;1.58;;;;;;;;;;5100211;28;20311;-82
2024/01/24 07:38:27;;;;;;;2.50;1.50;;;;;;;;;;5088923;28;20208;-81
2024/01/24 07:40:54;;;;;;;4.97;1.63;;;;;;;;;;5087974;28;20272;-80
2024/01/24 07:43:22;;;;;;;5.68;1.48;;;;;;;;;;5082005;28;20291;-83
2024/01/24 07:45:50;;;;;;;2.90;1.27;;;;;;;;;;5102320;28;20291;-82
2024/01/24 07:48:18;;;;;;;3.60;1.85;;;;;;;;;;5102216;28;20655;-82
2024/01/24 07:50:45;;;;;;;3.80;2.15;;;;;;;;;;5103101;28;20601;-83
2024/01/24 07:53:14;;;;;;;5.13;1.85;;;;;;;;;;5094386;28;20200;-81
2024/01/24 07:55:42;;;;;;;4.78;1.92;;;;;;;;;;5093861;28;20288;-82
2024/01/24 07:58:09;;;;;;;4.57;1.90;;;;;;;;;;5086862;28;20215;-82
2024/01/24 08:00:37;;;;;;;2.83;1.65;;;;;;;;;;5103409;28;20639;-85
2024/01/24 08:03:05;;;;;;;3.55;2.20;;;;;;;;;;5098894;28;20263;-81
2024/01/24 08:05:32;;;;;;;3.17;1.58;;;;;;;;;;5094630;28;20262;-82
2024/01/24 08:08:01;;;;;;;6.93;2.28;;;;;;;;;;5097907;28;20331;-82
2024/01/24 08:10:30;;;;;;;5.78;2.78;;;;;;;;;;5100957;28;20215;-81
2024/01/24 08:12:58;;;;;;;4.60;2.00;;;;;;;;;;5094063;28;20220;-80
2024/01/24 08:15:26;;;;;;;4.38;1.80;;;;;;;;;;5095856;28;20228;-82
2024/01/24 08:17:53;;;;;;;4.60;1.85;;;;;;;;;;5097895;28;20205;-81
2024/01/24 08:20:21;;;;;;;7.78;2.92;;;;;;;;;;5093508;28;20292;-80
2024/01/24 08:22:49;;;;;;;5.75;2.00;;;;;;;;;;5094806;28;20249;-81
2024/01/24 08:25:17;;;;;;;4.90;1.77;;;;;;;;;;5099296;28;20226;-80
2024/01/24 08:27:46;;;;;;;5.25;1.98;;;;;;;;;;5092706;28;20235;-79
2024/01/24 08:30:15;;;;;;;3.83;1.70;;;;;;;;;;5098110;28;20716;-80
2024/01/24 08:32:43;;;;;;;6.55;2.50;;;;;;;;;;5091311;28;20243;-81
2024/01/24 08:35:10;;;;;;;5.22;2.47;;;;;;;;;;5101294;28;20247;-82
2024/01/24 08:37:38;;;;;;;5.10;2.00;;;;;;;;;;5094323;28;20235;-81
2024/01/24 08:40:08;;;;;;;4.43;2.42;;;;;;;;;;5093494;28;20306;-80
2024/01/24 08:42:36;;;;;;;5.22;2.47;;;;;;;;;;5096786;28;20211;-81
2024/01/24 08:45:06;;;;;;;4.18;2.10;;;;;;;;;;5094402;28;20240;-80
2024/01/24 08:47:33;;;;;;;5.78;2.05;;;;;;;;;;5099326;28;20295;-81
2024/01/24 08:50:00;;;;;;;6.07;2.75;;;;;;;;;;5090878;28;20699;-82
2024/01/24 08:52:28;;;;;;;4.22;1.75;;;;;;;;;;5099710;28;20283;-81
2024/01/24 08:54:55;;;;;;;3.72;1.52;;;;;;;;;;5097133;28;20304;-80
2024/01/24 08:57:23;;;;;;;8.52;2.10;;;;;;;;;;5089609;28;20287;-82
2024/01/24 08:59:51;;;;;;;7.63;2.05;;;;;;;;;;5101553;28;20200;-81
2024/01/24 09:02:20;;;;;;;5.80;3.08;;;;;;;;;;5097530;28;20204;-83
2024/01/24 09:04:48;;;;;;;3.70;1.60;;;;;;;;;;5105379;28;20255;-80
2024/01/24 09:07:15;;;;;;;4.78;1.90;;;;;;;;;;5095524;28;20205;-82
2024/01/24 09:09:43;;;;;;;4.10;1.73;;;;;;;;;;5097219;28;20279;-81
2024/01/24 09:12:10;;;;;;;3.47;1.60;;;;;;;;;;5089790;28;20625;-79
2024/01/24 09:14:38;;;;;;;3.50;2.22;;;;;;;;;;5097787;28;20264;-79
2024/01/24 09:17:07;;;;;;;6.85;2.35;;;;;;;;;;5093786;28;20272;-79
2024/01/24 09:19:36;;;;;;;4.30;1.75;;;;;;;;;;5100560;28;20208;-80
2024/01/24 09:22:04;;;;;;;6.35;2.10;;;;;;;;;;5094528;28;20227;-79
2024/01/24 09:24:31;;;;;;;4.47;2.13;;;;;;;;;;5098128;28;20224;-82
2024/01/24 09:26:58;;;;;;;3.25;2.03;;;;;;;;;;5101564;28;20256;-82
2024/01/24 09:29:25;;;;;;;2.67;2.00;;;;;;;;;;5100078;28;20211;-82
2024/01/24 09:31:52;;;;;;;9.98;4.60;;;;;;;;;;5098765;28;20233;-80
2024/01/24 09:34:20;;;;;;;11.57;3.03;;;;;;;;;;5092425;28;20203;-82
2024/01/24 09:36:49;;;;;;;5.07;2.50;;;;;;;;;;5096268;28;20263;-81
2024/01/24 09:39:16;;;;;;;5.43;2.45;;;;;;;;;;5101924;28;20272;-80
2024/01/24 09:41:45;;;;;;;3.88;2.10;;;;;;;;;;5095685;28;20265;-79
2024/01/24 09:44:14;;;;;;;7.22;2.65;;;;;;;;;;5094779;28;20591;-83
2024/01/24 09:46:41;;;;;;;5.40;2.40;;;;;;;;;;5102695;28;20225;-81
2024/01/24 09:49:10;;;;;;;8.35;3.00;;;;;;;;;;5098306;28;20263;-80
2024/01/24 09:51:37;;;;;;;6.45;2.80;;;;;;;;;;5102637;28;20302;-82
2024/01/24 09:54:08;;;;;;;5.53;2.20;;;;;;;;;;5093217;28;20701;-80
2024/01/24 09:56:37;;;;;;;14.23;3.95;;;;;;;;;;5099708;28;20306;-80
2024/01/24 09:59:06;;;;;;;8.60;3.45;;;;;;;;;;5094934;28;20232;-81
2024/01/24 10:01:38;;;;;;;13.18;4.40;;;;;;;;;;5101494;28;20259;-81
2024/01/24 10:04:06;;;;;;;8.85;2.97;;;;;;;;;;5095181;28;20287;-84
2024/01/24 10:06:39;;;;;;;13.93;4.13;;;;;;;;;;5102827;28;20308;-80
2024/01/24 10:09:08;;;;;;;7.32;3.35;;;;;;;;;;5090327;28;20208;-81
2024/01/24 10:11:36;;;;;;;7.07;2.85;;;;;;;;;;5106361;28;20196;-84
2024/01/24 10:14:03;;;;;;;7.22;3.28;;;;;;;;;;5104813;28;20204;-82
2024/01/24 10:16:31;;;;;;;8.40;3.60;;;;;;;;;;5101246;28;20228;-82
2024/01/24 10:18:58;;;;;;;9.23;3.88;;;;;;;;;;5094219;28;20645;-80
2024/01/24 10:21:27;;;;;;;14.50;4.85;;;;;;;;;;5109622;28;20644;-81
2024/01/24 10:23:55;;;;;;;9.05;3.50;;;;;;;;;;5101845;28;20283;-80
2024/01/24 10:26:24;;;;;;;8.88;3.88;;;;;;;;;;5104354;28;20216;-81
2024/01/24 10:28:51;;;;;;;9.90;3.10;;;;;;;;;;5097208;28;20204;-80
2024/01/24 10:31:19;;;;;;;10.23;2.58;;;;;;;;;;5101499;28;20291;-81
2024/01/24 10:33:49;;;;;;;8.70;3.30;;;;;;;;;;5102544;28;20208;-80
2024/01/24 10:36:16;;;;;;;8.23;3.20;;;;;;;;;;5096248;28;20240;-81
2024/01/24 10:38:49;;;;;;;7.93;4.07;;;;;;;;;;5102852;28;20283;-80
2024/01/24 10:41:17;;;;;;;7.95;3.22;;;;;;;;;;5105151;28;20291;-80
2024/01/24 10:43:49;;;;;;;12.07;3.28;;;;;;;;;;5101443;28;20209;-81
2024/01/24 10:46:18;;;;;;;11.13;3.25;;;;;;;;;;5101630;28;20315;-79
2024/01/24 10:48:45;;;;;;;21.67;4.47;;;;;;;;;;5097771;28;20204;-80
2024/01/24 10:51:13;;;;;;;5.90;3.33;;;;;;;;;;5098534;28;20283;-79
2024/01/24 10:53:41;;;;;;;8.25;3.13;;;;;;;;;;5097832;28;20197;-80
2024/01/24 10:56:09;;;;;;;7.78;3.20;;;;;;;;;;5107847;28;20223;-81
2024/01/24 10:58:38;;;;;;;6.90;2.80;;;;;;;;;;5088037;28;20718;-80
2024/01/24 11:01:08;;;;;;;6.93;4.13;;;;;;;;;;5098595;28;20589;-81
2024/01/24 11:03:36;;;;;;;9.20;3.40;;;;;;;;;;5098252;28;20202;-80
2024/01/24 11:06:06;;;;;;;5.90;3.05;;;;;;;;;;5103262;28;20314;-80
2024/01/24 11:08:37;;;;;;;10.07;3.40;;;;;;;;;;5093997;28;20712;-83
2024/01/24 11:11:09;;;;;;;11.68;4.90;;;;;;;;;;5098665;28;20560;-81
2024/01/24 11:13:36;;;;;;;6.70;3.00;;;;;;;;;;5098494;28;20292;-80
2024/01/24 11:16:29;;;;;;;9.32;3.85;;;;;;;;;;5090378;28;20279;-81
2024/01/24 11:19:00;;;;;;;8.77;3.38;;;;;;;;;;5111159;28;20398;-80
2024/01/24 11:21:29;;;;;;;6.70;2.47;;;;;;;;;;5105970;28;20553;-80
2024/01/24 11:23:57;;;;;;;11.45;4.28;;;;;;;;;;5098200;28;20200;-81
2024/01/24 11:26:48;;;;;;;13.43;4.97;;;;;;;;;;5093309;28;20232;-82
2024/01/24 11:29:16;;;;;;;15.25;4.75;;;;;;;;;;5097792;28;20211;-81
2024/01/24 11:31:47;;;;;;;9.80;4.18;;;;;;;;;;5097985;28;20710;-79
2024/01/24 11:34:16;;;;;;;5.60;2.63;;;;;;;;;;5097965;28;20802;-81
2024/01/24 11:36:48;;;;;;;14.70;3.13;;;;;;;;;;5101669;28;20226;-81
2024/01/24 11:39:34;;;;;;;10.82;3.60;;;;;;;;;;5087180;28;20495;-80
2024/01/24 11:42:36;;;;;;;8.43;2.88;;;;;;;;;;5097322;28;20205;-81
2024/01/24 11:45:18;;;;;;;7.60;3.22;;;;;;;;;;5085223;28;20273;-79
2024/01/24 11:47:47;;;;;;;6.50;2.78;;;;;;;;;;5091112;28;20239;-81
2024/01/24 11:50:15;;;;;;;11.73;3.35;;;;;;;;;;5098224;28;20207;-80
2024/01/24 11:52:44;;;;;;;13.85;5.03;;;;;;;;;;5093545;28;20204;-80
2024/01/24 11:55:12;;;;;;;7.10;3.25;;;;;;;;;;5084261;28;20255;-81
2024/01/24 11:57:39;;;;;;;6.82;2.90;;;;;;;;;;5095120;28;20652;-81
2024/01/24 12:00:09;;;;;;;11.85;3.92;;;;;;;;;;5089410;28;20218;-81
2024/01/24 12:02:36;;;;;;;10.32;2.83;;;;;;;;;;5092846;28;20258;-82
2024/01/24 12:05:07;;;;;;;10.13;3.33;;;;;;;;;;5093295;28;20227;-81
2024/01/24 12:07:34;;;;;;;11.50;3.17;;;;;;;;;;5082422;28;20193;-80
2024/01/24 12:10:04;;;;;;;9.98;3.85;;;;;;;;;;5096638;28;20208;-78
2024/01/24 12:12:32;;;;;;;8.90;3.03;;;;;;;;;;5095376;28;20204;-81
2024/01/24 12:15:00;;;;;;;8.75;4.05;;;;;;;;;;5101667;28;20701;-82
2024/01/24 12:17:28;;;;;;;5.95;2.92;;;;;;;;;;5091101;28;20204;-80
2024/01/24 12:19:58;;;;;;;8.88;3.10;;;;;;;;;;5100398;28;20223;-81
2024/01/24 12:22:29;;;;;;;10.63;3.80;;;;;;;;;;5100434;28;20299;-80
2024/01/24 12:24:57;;;;;;;11.23;3.10;;;;;;;;;;5100698;28;20307;-82
2024/01/24 12:27:24;;;;;;;9.18;3.10;;;;;;;;;;5100757;28;20264;-80
2024/01/24 12:29:53;;;;;;;13.15;3.55;;;;;;;;;;5102447;28;20714;-79
2024/01/24 12:32:22;;;;;;;8.90;3.72;;;;;;;;;;5086091;28;20648;-81
2024/01/24 12:34:50;;;;;;;11.77;3.45;;;;;;;;;;5101952;28;20334;-79
2024/01/24 12:37:22;;;;;;;10.00;2.95;;;;;;;;;;5103556;28;20276;-80
2024/01/24 12:39:54;;;;;;;9.45;3.20;;;;;;;;;;5094093;28;20201;-80
2024/01/24 12:42:21;;;;;;;7.78;3.22;;;;;;;;;;5101555;28;20204;-80
2024/01/24 12:44:54;;;;;;;6.22;3.40;;;;;;;;;;5103381;28;20208;-79
2024/01/24 12:47:22;;;;;;;11.20;4.63;;;;;;;;;;5094477;28;20217;-80
2024/01/24 12:49:50;;;;;;;8.77;2.88;;;;;;;;;;5103846;28;20272;-79
2024/01/24 12:52:17;;;;;;;5.45;3.13;;;;;;;;;;5103022;28;20200;-80
2024/01/24 12:54:45;;;;;;;13.00;3.50;;;;;;;;;;5103132;28;20268;-81
2024/01/24 12:57:13;;;;;;;8.85;3.30;;;;;;;;;;5103196;28;20291;-79
2024/01/24 12:59:41;;;;;;;9.48;3.47;;;;;;;;;;5099755;28;20271;-81
2024/01/24 13:02:09;;;;;;;6.25;3.40;;;;;;;;;;5102269;28;20300;-79
2024/01/24 13:04:37;;;;;;;8.88;3.72;;;;;;;;;;5100962;28;20812;-81
2024/01/24 13:07:05;;;;;;;11.75;3.85;;;;;;;;;;5082574;28;20228;-79
2024/01/24 13:09:32;;;;;;;9.30;3.78;;;;;;;;;;5089724;28;20208;-81
2024/01/24 13:12:00;;;;;;;8.43;3.92;;;;;;;;;;5103187;28;20209;-79
2024/01/24 13:14:29;;;;;;;7.78;3.28;;;;;;;;;;5091661;28;20292;-79
2024/01/24 13:16:56;;;;;;;10.50;4.50;;;;;;;;;;5085913;28;20208;-80
2024/01/24 13:19:25;;;;;;;12.02;2.78;;;;;;;;;;5094804;28;20284;-80
2024/01/24 13:21:52;;;;;;;9.98;3.22;;;;;;;;;;5101104;28;20793;-80
2024/01/24 13:24:22;;;;;;;11.68;4.53;;;;;;;;;;5101669;28;20208;-80
2024/01/24 13:26:49;;;;;;;7.88;3.40;;;;;;;;;;5097029;28;20234;-80
2024/01/24 13:29:17;;;;;;;8.77;3.58;;;;;;;;;;5096662;28;20188;-82
2024/01/24 13:31:46;;;;;;;7.85;3.70;;;;;;;;;;5096888;28;20267;-78
2024/01/24 13:34:13;;;;;;;11.38;3.60;;;;;;;;;;5096046;28;20676;-79
2024/01/24 13:36:41;;;;;;;10.88;3.53;;;;;;;;;;5096641;28;20225;-80
2024/01/24 13:39:11;;;;;;;10.23;4.50;;;;;;;;;;5098256;28;20200;-80
2024/01/24 13:41:39;;;;;;;13.13;4.47;;;;;;;;;;5100464;28;20204;-82
2024/01/24 13:44:07;;;;;;;10.15;3.58;;;;;;;;;;5099868;28;20220;-81
2024/01/24 13:46:35;;;;;;;9.95;3.05;;;;;;;;;;5100819;28;20228;-81
2024/01/24 13:49:04;;;;;;;12.00;4.68;;;;;;;;;;5099732;28;20291;-82
2024/01/24 13:51:32;;;;;;;8.63;3.33;;;;;;;;;;5089179;28;20201;-80
2024/01/24 13:54:00;;;;;;;9.52;3.80;;;;;;;;;;5079930;28;20281;-80
2024/01/24 13:56:27;;;;;;;8.52;2.70;;;;;;;;;;5079796;28;20221;-79
2024/01/24 13:58:55;;;;;;;10.73;3.55;;;;;;;;;;5078968;28;20205;-81
2024/01/24 14:01:22;;;;;;;10.10;3.40;;;;;;;;;;5079907;28;20660;-80
2024/01/24 14:03:51;;;;;;;9.45;3.53;;;;;;;;;;5079283;28;20259;-81
2024/01/24 14:06:22;;;;;;;9.77;3.70;;;;;;;;;;5079411;28;20235;-81
2024/01/24 14:08:50;;;;;;;10.63;4.13;;;;;;;;;;5080373;28;20209;-80
2024/01/24 14:11:17;;;;;;;11.73;3.25;;;;;;;;;;5079400;28;20288;-81
2024/01/24 14:13:48;;;;;;;6.53;2.40;;;;;;;;;;5079408;28;20288;-80
2024/01/24 14:16:17;;;;;;;10.48;4.00;;;;;;;;;;5097659;28;20216;-82
2024/01/24 14:18:45;;;;;;;10.30;3.53;;;;;;;;;;5101351;28;20651;-84
2024/01/24 14:21:13;;;;;;;10.65;3.67;;;;;;;;;;5104215;28;20647;-83
2024/01/24 14:23:43;;;;;;;11.18;3.03;;;;;;;;;;5099226;28;20200;-83
2024/01/24 14:26:11;;;;;;;10.70;3.03;;;;;;;;;;5102279;28;20216;-82
2024/01/24 14:28:38;;;;;;;15.32;4.32;;;;;;;;;;5101277;28;20210;-82
2024/01/24 14:31:06;;;;;;;8.35;3.72;;;;;;;;;;5100102;28;20215;-84
2024/01/24 14:33:33;;;;;;;9.40;3.95;;;;;;;;;;5100448;28;20794;-84
2024/01/24 14:36:01;;;;;;;9.43;2.90;;;;;;;;;;5096346;28;20309;-84
2024/01/24 14:38:28;;;;;;;10.15;3.58;;;;;;;;;;5120371;28;20223;-83
2024/01/24 14:40:57;;;;;;;6.80;3.30;;;;;;;;;;5119442;28;20208;-83
2024/01/24 14:43:24;;;;;;;8.68;2.90;;;;;;;;;;5121678;28;20264;-84
2024/01/24 14:45:52;;;;;;;6.55;3.47;;;;;;;;;;5112623;28;20697;-83
2024/01/24 14:48:19;;;;;;;9.40;3.42;;;;;;;;;;5123168;28;20699;-84